createdAt,value
2022-08-03T00:00:30.637Z,50.64
2022-08-03T00:03:18.078Z,50.59
2022-08-03T00:06:03.948Z,50.52
2022-08-03T00:08:32.168Z,50.72
2022-08-03T00:11:07.138Z,50.86
2022-08-03T00:13:34.426Z,51.08
2022-08-03T07:14:49.188Z,15.74
2022-08-03T07:17:16.266Z,14.90
2022-08-03T07:19:43.929Z,14.70
2022-08-03T07:22:11.694Z,14.63
2022-08-03T07:24:38.975Z,14.02
2022-08-03T07:27:06.146Z,13.48
2022-08-03T07:29:35.165Z,13.68
2022-08-03T07:32:03.399Z,14.08
2022-08-03T07:34:36.657Z,15.56
2022-08-03T07:37:04.056Z,14.35
2022-08-03T07:39:31.089Z,14.07
2022-08-03T07:41:58.042Z,14.03
2022-08-03T07:44:25.177Z,13.20
2022-08-03T07:46:54.778Z,12.77
2022-08-03T07:49:23.985Z,13.56
2022-08-03T07:52:11.245Z,13.95
2022-08-03T07:54:38.468Z,14.88
2022-08-03T07:57:05.686Z,14.31
2022-08-03T07:59:57.179Z,14.77
2022-08-03T08:02:29.837Z,14.23
2022-08-03T08:04:56.855Z,14.21
2022-08-03T08:07:25.322Z,14.06
2022-08-03T08:09:52.544Z,13.73
2022-08-03T08:12:19.961Z,13.76
2022-08-03T08:14:47.311Z,13.96
2022-08-03T08:17:14.618Z,13.55
2022-08-03T08:19:49.000Z,12.72
2022-08-03T08:22:28.066Z,12.83
2022-08-03T08:24:59.652Z,13.39
2022-08-03T08:28:30.758Z,14.48
2022-08-03T08:30:21.541Z,17.44
2022-08-03T08:32:51.572Z,16.54
2022-08-03T08:35:19.605Z,16.09
2022-08-03T08:37:51.029Z,15.52
2022-08-03T08:40:21.647Z,14.67
2022-08-03T08:42:58.299Z,15.66
2022-08-03T08:45:31.791Z,15.67
2022-08-03T08:48:07.869Z,16.19
2022-08-03T08:50:37.624Z,16.05
2022-08-03T08:53:09.731Z,15.40
2022-08-03T08:55:59.270Z,15.85
2022-08-03T08:58:35.067Z,16.06
2022-08-03T09:01:02.187Z,16.18
2022-08-03T09:03:30.789Z,16.46
2022-08-03T09:06:02.433Z,16.90
2022-08-03T09:08:31.148Z,16.96
2022-08-03T09:10:58.497Z,17.34
2022-08-03T09:13:25.947Z,17.96
2022-08-03T09:16:13.036Z,18.80
2022-08-03T09:18:42.762Z,20.67
2022-08-03T09:21:32.234Z,22.40
2022-08-03T09:24:06.250Z,23.02
2022-08-03T09:26:38.393Z,22.98
2022-08-03T09:29:14.491Z,22.06
2022-08-03T09:31:44.367Z,21.63
2022-08-03T09:34:16.501Z,22.06
2022-08-03T09:36:44.958Z,21.75
2022-08-03T09:39:14.573Z,22.16
2022-08-03T09:41:44.613Z,21.25
2022-08-03T09:44:25.333Z,22.41
2022-08-03T09:46:56.929Z,22.16
2022-08-03T09:49:33.125Z,21.59
2022-08-03T09:52:39.416Z,22.06
2022-08-03T09:54:55.593Z,22.66
2022-08-03T09:57:27.841Z,22.78
2022-08-03T10:00:08.413Z,23.27
2022-08-03T10:02:42.864Z,23.62
2022-08-03T10:05:19.415Z,23.68
2022-08-03T10:07:50.577Z,23.91
2022-08-03T10:10:29.347Z,25.00
2022-08-03T10:13:00.374Z,25.17
2022-08-03T10:16:21.971Z,24.81
2022-08-03T10:18:15.425Z,25.52
2022-08-03T10:21:04.371Z,25.50
2022-08-03T10:23:35.371Z,26.04
2022-08-03T10:26:04.792Z,26.52
2022-08-03T10:28:42.767Z,26.53
2022-08-03T10:31:14.309Z,26.38
2022-08-03T10:33:52.819Z,27.27
2022-08-03T10:36:24.794Z,27.01
2022-08-03T10:38:53.810Z,27.11
2022-08-03T10:41:23.736Z,26.73
2022-08-03T10:44:10.185Z,26.97
2022-08-03T10:46:44.968Z,26.86
2022-08-03T10:49:32.807Z,27.13
2022-08-03T10:52:13.793Z,27.34
2022-08-03T10:55:10.706Z,27.22
2022-08-03T10:57:49.723Z,26.89
2022-08-03T11:00:20.072Z,27.22
2022-08-03T11:03:14.677Z,27.56
2022-08-03T11:05:44.163Z,28.55
2022-08-03T11:08:29.626Z,26.81
2022-08-03T11:11:18.231Z,28.69
2022-08-03T11:14:09.979Z,28.06
2022-08-03T11:16:49.859Z,28.30
2022-08-03T11:19:22.605Z,28.13
2022-08-03T11:21:50.402Z,28.33
2022-08-03T11:24:43.823Z,28.30
2022-08-03T11:27:20.198Z,28.53
2022-08-03T11:30:03.115Z,28.07
2022-08-03T11:32:38.593Z,28.55
2022-08-03T11:35:23.205Z,28.55
2022-08-03T11:38:05.072Z,28.97
2022-08-03T11:40:47.836Z,29.02
2022-08-03T11:43:35.220Z,29.15
2022-08-03T11:46:02.260Z,29.17
2022-08-03T11:48:36.245Z,29.12
2022-08-03T11:51:23.802Z,29.17
2022-08-03T11:53:53.932Z,28.86
2022-08-03T11:56:21.392Z,28.95
2022-08-03T11:58:58.211Z,28.81
2022-08-03T12:01:37.813Z,28.50
2022-08-03T12:04:06.304Z,28.71
2022-08-03T12:06:53.674Z,28.62
2022-08-03T12:09:25.464Z,28.79
2022-08-03T12:11:59.835Z,28.04
2022-08-03T12:14:48.638Z,27.94
2022-08-03T12:17:18.062Z,28.65
2022-08-03T12:19:45.541Z,28.66
2022-08-03T12:22:12.599Z,28.67
2022-08-03T12:24:46.901Z,28.36
2022-08-03T12:27:24.250Z,28.30
2022-08-03T12:29:58.711Z,28.44
2022-08-03T12:32:28.008Z,28.71
2022-08-03T12:35:00.200Z,29.07
2022-08-03T12:37:27.899Z,29.05
2022-08-03T12:40:02.365Z,28.25
2022-08-03T12:42:35.762Z,28.04
2022-08-03T12:45:25.704Z,27.82
2022-08-03T12:47:58.741Z,28.31
2022-08-03T12:50:34.019Z,28.33
2022-08-03T12:53:04.798Z,28.81
2022-08-03T12:56:04.198Z,28.97
2022-08-03T12:58:38.826Z,29.64
2022-08-03T13:01:09.518Z,29.55
2022-08-03T13:03:43.580Z,29.30
2022-08-03T13:06:28.756Z,29.47
2022-08-03T13:09:07.383Z,29.39
2022-08-03T13:11:57.247Z,28.99
2022-08-03T13:14:23.725Z,29.47
2022-08-03T13:16:51.353Z,29.76
2022-08-03T13:19:18.440Z,29.89
2022-08-03T13:22:01.790Z,29.67
2022-08-03T13:24:33.235Z,30.22
2022-08-03T13:27:22.468Z,30.61
2022-08-03T13:29:48.654Z,29.94
2022-08-03T13:32:16.043Z,30.27
2022-08-03T13:34:43.099Z,29.78
2022-08-03T13:37:13.528Z,30.58
2022-08-03T13:39:57.955Z,30.59
2022-08-03T13:42:28.499Z,29.48
2022-08-03T13:44:59.022Z,29.92
2022-08-03T13:47:27.196Z,30.08
2022-08-03T13:50:01.452Z,29.70
2022-08-03T13:52:33.313Z,29.43
2022-08-03T13:55:01.122Z,29.27
2022-08-03T13:58:05.335Z,29.16
2022-08-03T14:00:27.251Z,29.34
2022-08-03T14:03:06.484Z,29.44
2022-08-03T14:05:38.445Z,29.55
2022-08-03T14:08:07.008Z,30.10
2022-08-03T14:10:39.313Z,30.43
2022-08-03T14:13:06.957Z,30.23
2022-08-03T14:15:37.472Z,29.91
2022-08-03T14:18:15.375Z,30.20
2022-08-03T14:20:50.297Z,30.51
2022-08-03T14:23:21.634Z,30.48
2022-08-03T14:25:51.691Z,30.81
2022-08-03T14:28:23.138Z,30.17
2022-08-03T14:30:56.013Z,30.57
2022-08-03T14:33:24.231Z,30.86
2022-08-03T14:35:52.556Z,31.12
2022-08-03T14:38:20.872Z,30.86
2022-08-03T14:40:48.812Z,30.77
2022-08-03T14:43:18.200Z,30.73
2022-08-03T14:45:45.432Z,30.77
2022-08-03T14:50:31.913Z,30.84
2022-08-03T14:50:59.955Z,30.92
2022-08-03T14:53:28.827Z,30.90
2022-08-03T14:55:56.040Z,31.15
2022-08-03T14:58:25.350Z,31.44
2022-08-03T15:00:53.814Z,31.21
2022-08-03T15:03:25.336Z,31.51
2022-08-03T15:05:57.138Z,32.02
2022-08-03T15:08:25.732Z,32.56
2022-08-03T15:10:54.484Z,32.05
2022-08-03T15:13:25.489Z,32.19
2022-08-03T15:15:52.949Z,32.00
2022-08-03T15:18:20.595Z,32.08
2022-08-03T15:20:49.734Z,32.23
2022-08-03T15:23:19.487Z,32.67
2022-08-03T15:26:03.664Z,32.38
2022-08-03T15:28:34.478Z,32.61
2022-08-03T15:31:05.606Z,32.29
2022-08-03T15:33:32.810Z,32.57
2022-08-03T15:36:02.445Z,32.66
2022-08-03T15:38:29.554Z,33.01
2022-08-03T15:40:57.157Z,33.41
2022-08-03T15:43:24.480Z,33.62
2022-08-03T15:46:19.083Z,33.90
2022-08-03T15:48:40.492Z,33.91
2022-08-03T15:51:08.473Z,34.08
2022-08-03T15:53:35.532Z,33.72
2022-08-03T15:56:09.434Z,33.89
2022-08-03T15:59:04.736Z,33.88
2022-08-03T16:01:26.589Z,34.14
2022-08-03T16:03:53.786Z,34.42
2022-08-03T16:06:34.703Z,34.34
2022-08-03T16:09:23.163Z,34.67
2022-08-03T16:11:55.642Z,35.17
2022-08-03T16:14:32.338Z,35.11
2022-08-03T16:17:03.919Z,35.20
2022-08-03T16:19:31.149Z,35.41
2022-08-03T16:21:58.625Z,35.58
2022-08-03T16:24:29.932Z,35.73
2022-08-03T16:26:57.162Z,35.38
2022-08-03T16:29:24.384Z,35.71
2022-08-03T16:31:52.572Z,35.69
2022-08-03T16:34:21.303Z,36.27
2022-08-03T16:36:48.929Z,35.70
2022-08-03T16:39:18.647Z,36.25
2022-08-03T16:41:54.176Z,36.92
2022-08-03T16:44:31.758Z,36.78
2022-08-03T16:46:59.783Z,36.46
2022-08-03T16:49:53.859Z,36.44
2022-08-03T16:52:16.684Z,36.36
2022-08-03T16:54:52.692Z,36.33
2022-08-03T16:57:56.427Z,36.33
2022-08-03T17:00:33.874Z,36.45
2022-08-03T17:03:04.073Z,36.73
2022-08-03T17:05:43.584Z,37.47
2022-08-03T17:08:13.025Z,37.30
2022-08-03T17:10:45.447Z,37.14
2022-08-03T17:13:21.769Z,38.07
2022-08-03T17:16:01.520Z,37.99
2022-08-03T17:18:38.210Z,38.54
2022-08-03T17:21:10.042Z,37.96
2022-08-03T17:24:03.442Z,38.21
2022-08-03T17:26:34.523Z,38.28
2022-08-03T17:29:11.196Z,38.68
2022-08-03T17:31:48.535Z,38.25
2022-08-03T17:34:17.141Z,38.52
2022-08-03T17:39:57.102Z,38.48
2022-08-03T17:42:29.410Z,38.69
2022-08-03T17:45:01.679Z,38.71
2022-08-03T17:47:42.198Z,38.47
2022-08-03T17:50:23.287Z,38.65
2022-08-03T17:53:07.624Z,39.02
2022-08-03T17:55:56.535Z,39.01
2022-08-03T17:58:59.220Z,39.25
2022-08-03T18:02:29.991Z,39.28
2022-08-03T18:05:16.000Z,39.29
2022-08-03T18:07:59.239Z,39.31
2022-08-03T18:10:49.614Z,39.58
2022-08-03T18:13:44.634Z,40.10
2022-08-03T18:16:44.307Z,40.02
2022-08-03T18:19:13.557Z,39.84
2022-08-03T18:22:03.740Z,39.77
2022-08-03T18:24:30.942Z,39.86
2022-08-03T18:27:02.430Z,39.78
2022-08-03T18:29:33.821Z,39.77
2022-08-03T18:32:05.984Z,39.82
2022-08-03T18:34:37.162Z,40.31
2022-08-03T18:37:25.766Z,40.69
2022-08-03T18:39:57.894Z,40.71
2022-08-03T18:42:26.445Z,40.97
2022-08-03T18:44:56.433Z,41.10
2022-08-03T18:47:50.740Z,41.15
2022-08-03T18:50:39.061Z,41.56
2022-08-03T18:54:03.579Z,41.55
2022-08-03T18:56:26.938Z,41.92
2022-08-03T18:58:54.034Z,42.05
2022-08-03T19:02:00.162Z,42.16
2022-08-03T19:04:46.100Z,42.36
2022-08-03T19:07:17.758Z,42.25
2022-08-03T19:09:54.772Z,42.56
2022-08-03T19:12:31.145Z,42.62
2022-08-03T19:15:05.749Z,42.75
2022-08-03T19:17:50.273Z,42.64
2022-08-03T19:20:28.206Z,42.87
2022-08-03T19:22:56.657Z,43.05
2022-08-03T19:25:34.481Z,43.11
2022-08-03T19:28:06.141Z,43.27
2022-08-03T19:30:53.214Z,43.29
2022-08-03T19:33:22.793Z,43.38
2022-08-03T19:35:54.969Z,43.32
2022-08-03T19:38:38.074Z,43.15
2022-08-03T19:41:13.948Z,43.56
2022-08-03T19:43:57.771Z,43.43
2022-08-03T19:46:30.732Z,43.45
2022-08-03T19:52:00.549Z,43.35
2022-08-03T19:54:53.047Z,43.43
2022-08-03T19:57:24.870Z,43.51
2022-08-03T19:59:55.982Z,43.84
2022-08-03T20:02:26.064Z,43.88
2022-08-03T20:04:59.739Z,44.20
2022-08-03T20:33:27.593Z,45.92
2022-08-03T20:36:10.310Z,45.96
2022-08-03T20:38:43.534Z,46.37
2022-08-03T20:41:10.875Z,46.41
2022-08-03T20:43:37.975Z,46.63
2022-08-03T20:46:29.417Z,46.84
2022-08-03T20:48:53.992Z,47.00
2022-08-03T20:51:49.498Z,46.70
2022-08-03T20:54:22.692Z,47.10
2022-08-03T20:56:58.063Z,47.42
2022-08-03T20:59:36.897Z,47.42
2022-08-03T21:05:08.922Z,47.44
2022-08-03T21:08:06.463Z,47.78
2022-08-03T21:10:38.604Z,47.92
2022-08-03T21:13:07.897Z,47.51
2022-08-03T21:13:10.337Z,43.58
2022-08-03T23:24:45.989Z,50.75
2022-08-03T23:27:13.236Z,50.62
2022-08-03T23:29:43.323Z,50.67
2022-08-03T23:32:13.072Z,50.85
2022-08-03T23:34:59.652Z,50.79
2022-08-03T23:37:27.128Z,50.81
2022-08-03T23:39:57.139Z,50.50
2022-08-03T23:42:24.488Z,51.11
2022-08-03T23:44:55.390Z,50.50
